Port Stanley, Washington
Current Conditions -  °F | °C
As of 12:53 AM on Saturday 25 Oct 2014 (Local Time) from KFHR Reporting Station
Light Rain Light Rain  
Wind Chill: 50°   Ceiling: 3900
Heat Index: 50°   Visibility: 8mi
Dew Point: 48°   Wind: 6mph
Humidity: 93%   Direction: 350°N
Pressure: 29.76"   Gusts: NA
Location:  48.4848°N, 122.883°W
Report Text: KFHR 250753Z AUTO 35005KT 8SM -RA OVC039 10/09 A2976 RMK AO2 SLP079 P0004 T01000089 401330100
Loading
Personal Weather Stations






























Interactive Weather Map
Tropical Storm Tracking
New forecast layout! Learn more

10-Day Weather Forecast

Advertisements
Track Severe Weather on mobile